sensor_id;sensor_type;location;lat;lon;timestamp;pressure;altitude;pressure_sealevel;temperature
40968;BMP280;57377;45.130;6.038;2022-09-13T00:01:25;92599.28;;;19.35
40968;BMP280;57377;45.130;6.038;2022-09-13T00:03:50;92604.69;;;19.69
40968;BMP280;57377;45.130;6.038;2022-09-13T00:06:17;92599.38;;;19.81
40968;BMP280;57377;45.130;6.038;2022-09-13T00:08:43;92601.59;;;19.25
40968;BMP280;57377;45.130;6.038;2022-09-13T00:11:21;92601.59;;;18.24
40968;BMP280;57377;45.130;6.038;2022-09-13T00:13:47;92593.19;;;18.93
40968;BMP280;57377;45.130;6.038;2022-09-13T00:16:14;92592.25;;;18.89
40968;BMP280;57377;45.130;6.038;2022-09-13T00:18:41;92596.25;;;18.95
40968;BMP280;57377;45.130;6.038;2022-09-13T00:21:09;92600.31;;;19.19
40968;BMP280;57377;45.130;6.038;2022-09-13T00:23:35;92591.38;;;18.96
40968;BMP280;57377;45.130;6.038;2022-09-13T00:26:10;92591.06;;;18.86
40968;BMP280;57377;45.130;6.038;2022-09-13T00:28:36;92586.03;;;19.20
40968;BMP280;57377;45.130;6.038;2022-09-13T00:31:05;92577.56;;;19.42
40968;BMP280;57377;45.130;6.038;2022-09-13T00:33:31;92578.41;;;19.30
40968;BMP280;57377;45.130;6.038;2022-09-13T00:35:56;92576.38;;;19.39
40968;BMP280;57377;45.130;6.038;2022-09-13T00:38:22;92579.19;;;19.31
40968;BMP280;57377;45.130;6.038;2022-09-13T00:40:47;92574.47;;;19.25
40968;BMP280;57377;45.130;6.038;2022-09-13T00:43:36;92574.72;;;19.20
40968;BMP280;57377;45.130;6.038;2022-09-13T00:46:04;92572.78;;;19.32
40968;BMP280;57377;45.130;6.038;2022-09-13T00:48:31;92574.59;;;19.28
40968;BMP280;57377;45.130;6.038;2022-09-13T00:50:59;92575.16;;;19.22
40968;BMP280;57377;45.130;6.038;2022-09-13T00:53:33;92579.19;;;19.31
40968;BMP280;57377;45.130;6.038;2022-09-13T00:56:06;92576.66;;;19.23
40968;BMP280;57377;45.130;6.038;2022-09-13T00:58:38;92573.22;;;19.34
40968;BMP280;57377;45.130;6.038;2022-09-13T01:01:08;92571.44;;;19.11
40968;BMP280;57377;45.130;6.038;2022-09-13T01:03:35;92567.44;;;19.44
40968;BMP280;57377;45.130;6.038;2022-09-13T01:06:10;92559.72;;;19.66
40968;BMP280;57377;45.130;6.038;2022-09-13T01:08:39;92556.91;;;19.44
40968;BMP280;57377;45.130;6.038;2022-09-13T01:11:10;92561.91;;;19.33
40968;BMP280;57377;45.130;6.038;2022-09-13T01:13:38;92562.72;;;19.22
40968;BMP280;57377;45.130;6.038;2022-09-13T01:16:04;92561.25;;;19.09
40968;BMP280;57377;45.130;6.038;2022-09-13T01:18:30;92569.22;;;18.86
40968;BMP280;57377;45.130;6.038;2022-09-13T01:24:18;92565.91;;;18.89
40968;BMP280;57377;45.130;6.038;2022-09-13T01:30:21;92562.09;;;19.13
40968;BMP280;57377;45.130;6.038;2022-09-13T01:33:15;92547.72;;;19.11
40968;BMP280;57377;45.130;6.038;2022-09-13T01:36:23;92549.03;;;19.32
40968;BMP280;57377;45.130;6.038;2022-09-13T01:39:11;92549.66;;;19.26
40968;BMP280;57377;45.130;6.038;2022-09-13T01:49:34;92546.41;;;18.78
40968;BMP280;57377;45.130;6.038;2022-09-13T01:52:28;92555.34;;;18.89
40968;BMP280;57377;45.130;6.038;2022-09-13T01:55:05;92547.88;;;18.13
40968;BMP280;57377;45.130;6.038;2022-09-13T01:57:33;92546.28;;;18.24
40968;BMP280;57377;45.130;6.038;2022-09-13T02:00:01;92538.81;;;18.37
40968;BMP280;57377;45.130;6.038;2022-09-13T02:02:36;92538.84;;;18.26
40968;BMP280;57377;45.130;6.038;2022-09-13T02:05:17;92534.53;;;18.33
40968;BMP280;57377;45.130;6.038;2022-09-13T02:07:56;92536.16;;;18.49
40968;BMP280;57377;45.130;6.038;2022-09-13T02:10:32;92531.31;;;18.63
40968;BMP280;57377;45.130;6.038;2022-09-13T02:12:58;92536.75;;;18.70
40968;BMP280;57377;45.130;6.038;2022-09-13T02:15:27;92536.50;;;18.75
40968;BMP280;57377;45.130;6.038;2022-09-13T02:18:10;92525.06;;;18.83
40968;BMP280;57377;45.130;6.038;2022-09-13T02:20:43;92521.53;;;18.91
40968;BMP280;57377;45.130;6.038;2022-09-13T02:23:12;92524.91;;;18.91
40968;BMP280;57377;45.130;6.038;2022-09-13T02:25:39;92521.13;;;18.77
40968;BMP280;57377;45.130;6.038;2022-09-13T02:28:08;92530.41;;;18.71
40968;BMP280;57377;45.130;6.038;2022-09-13T02:30:38;92532.91;;;18.67
40968;BMP280;57377;45.130;6.038;2022-09-13T02:33:17;92526.47;;;18.53
40968;BMP280;57377;45.130;6.038;2022-09-13T02:35:50;92533.13;;;18.24
40968;BMP280;57377;45.130;6.038;2022-09-13T02:38:30;92528.69;;;18.51
40968;BMP280;57377;45.130;6.038;2022-09-13T02:41:00;92538.31;;;18.71
40968;BMP280;57377;45.130;6.038;2022-09-13T02:43:34;92527.00;;;18.70
40968;BMP280;57377;45.130;6.038;2022-09-13T02:46:13;92519.38;;;18.81
40968;BMP280;57377;45.130;6.038;2022-09-13T02:48:49;92524.72;;;18.84
40968;BMP280;57377;45.130;6.038;2022-09-13T02:51:26;92530.28;;;18.67
40968;BMP280;57377;45.130;6.038;2022-09-13T02:54:30;92526.03;;;18.63
40968;BMP280;57377;45.130;6.038;2022-09-13T02:57:03;92521.31;;;18.57
40968;BMP280;57377;45.130;6.038;2022-09-13T02:59:49;92519.69;;;18.52
40968;BMP280;57377;45.130;6.038;2022-09-13T03:02:21;92515.66;;;18.70
40968;BMP280;57377;45.130;6.038;2022-09-13T03:05:11;92527.25;;;18.54
40968;BMP280;57377;45.130;6.038;2022-09-13T03:07:41;92524.72;;;18.57
40968;BMP280;57377;45.130;6.038;2022-09-13T03:10:13;92513.56;;;18.75
40968;BMP280;57377;45.130;6.038;2022-09-13T03:19:52;92523.31;;;18.75
40968;BMP280;57377;45.130;6.038;2022-09-13T03:31:34;92509.53;;;18.66
40968;BMP280;57377;45.130;6.038;2022-09-13T03:34:18;92515.66;;;18.43
40968;BMP280;57377;45.130;6.038;2022-09-13T03:37:08;92505.72;;;18.63
40968;BMP280;57377;45.130;6.038;2022-09-13T03:40:15;92509.50;;;18.78
40968;BMP280;57377;45.130;6.038;2022-09-13T03:42:52;92519.88;;;18.59
40968;BMP280;57377;45.130;6.038;2022-09-13T03:45:23;92518.00;;;18.60
40968;BMP280;57377;45.130;6.038;2022-09-13T03:47:52;92514.13;;;18.69
40968;BMP280;57377;45.130;6.038;2022-09-13T03:50:24;92520.56;;;18.56
40968;BMP280;57377;45.130;6.038;2022-09-13T03:52:55;92509.00;;;18.22
40968;BMP280;57377;45.130;6.038;2022-09-13T03:55:24;92508.50;;;18.43
40968;BMP280;57377;45.130;6.038;2022-09-13T03:57:51;92504.19;;;18.12
40968;BMP280;57377;45.130;6.038;2022-09-13T04:00:16;92500.66;;;18.20
40968;BMP280;57377;45.130;6.038;2022-09-13T04:02:42;92508.72;;;18.38
40968;BMP280;57377;45.130;6.038;2022-09-13T04:05:10;92501.06;;;18.33
40968;BMP280;57377;45.130;6.038;2022-09-13T04:07:35;92499.53;;;18.32
40968;BMP280;57377;45.130;6.038;2022-09-13T04:10:01;92498.19;;;18.38
40968;BMP280;57377;45.130;6.038;2022-09-13T04:12:26;92491.75;;;18.24
40968;BMP280;57377;45.130;6.038;2022-09-13T04:14:55;92494.81;;;18.26
40968;BMP280;57377;45.130;6.038;2022-09-13T04:17:20;92489.34;;;18.31
40968;BMP280;57377;45.130;6.038;2022-09-13T04:19:45;92494.97;;;18.18
40968;BMP280;57377;45.130;6.038;2022-09-13T04:22:12;92494.81;;;18.26
40968;BMP280;57377;45.130;6.038;2022-09-13T04:24:37;92489.09;;;18.36
40968;BMP280;57377;45.130;6.038;2022-09-13T04:27:04;92490.44;;;18.30
40968;BMP280;57377;45.130;6.038;2022-09-13T04:29:29;92501.53;;;18.24
40968;BMP280;57377;45.130;6.038;2022-09-13T04:31:56;92494.81;;;18.38
40968;BMP280;57377;45.130;6.038;2022-09-13T04:34:21;92490.28;;;18.38
40968;BMP280;57377;45.130;6.038;2022-09-13T04:36:48;92484.59;;;18.36
40968;BMP280;57377;45.130;6.038;2022-09-13T04:39:13;92480.88;;;18.37
40968;BMP280;57377;45.130;6.038;2022-09-13T04:41:42;92475.56;;;18.49
40968;BMP280;57377;45.130;6.038;2022-09-13T04:44:10;92469.00;;;18.43
40968;BMP280;57377;45.130;6.038;2022-09-13T04:46:35;92463.91;;;18.50
40968;BMP280;57377;45.130;6.038;2022-09-13T04:49:01;92459.13;;;18.67
40968;BMP280;57377;45.130;6.038;2022-09-13T04:51:26;92460.00;;;18.71
40968;BMP280;57377;45.130;6.038;2022-09-13T04:53:52;92463.56;;;18.63
40968;BMP280;57377;45.130;6.038;2022-09-13T04:56:23;92441.66;;;18.48
40968;BMP280;57377;45.130;6.038;2022-09-13T04:58:53;92440.84;;;18.59
40968;BMP280;57377;45.130;6.038;2022-09-13T05:01:20;92442.31;;;18.45
40968;BMP280;57377;45.130;6.038;2022-09-13T05:03:45;92438.75;;;18.26
40968;BMP280;57377;45.130;6.038;2022-09-13T05:06:13;92447.72;;;18.36
40968;BMP280;57377;45.130;6.038;2022-09-13T05:08:39;92443.84;;;18.46
40968;BMP280;57377;45.130;6.038;2022-09-13T05:11:06;92442.66;;;18.43
40968;BMP280;57377;45.130;6.038;2022-09-13T05:13:32;92453.41;;;18.11
40968;BMP280;57377;45.130;6.038;2022-09-13T05:16:07;92442.28;;;18.30
40968;BMP280;57377;45.130;6.038;2022-09-13T05:18:34;92442.34;;;18.60
40968;BMP280;57377;45.130;6.038;2022-09-13T05:21:02;92437.19;;;18.36
40968;BMP280;57377;45.130;6.038;2022-09-13T05:23:29;92441.50;;;18.56
40968;BMP280;57377;45.130;6.038;2022-09-13T05:26:03;92446.22;;;18.24
40968;BMP280;57377;45.130;6.038;2022-09-13T05:28:31;92461.22;;;18.08
40968;BMP280;57377;45.130;6.038;2022-09-13T05:31:01;92450.25;;;17.59
40968;BMP280;57377;45.130;6.038;2022-09-13T05:33:33;92447.56;;;18.18
40968;BMP280;57377;45.130;6.038;2022-09-13T05:35:59;92433.09;;;18.39
40968;BMP280;57377;45.130;6.038;2022-09-13T05:38:25;92437.09;;;18.33
40968;BMP280;57377;45.130;6.038;2022-09-13T05:40:54;92438.25;;;18.47
40968;BMP280;57377;45.130;6.038;2022-09-13T05:43:22;92436.63;;;17.92
40968;BMP280;57377;45.130;6.038;2022-09-13T05:45:48;92429.50;;;18.31
40968;BMP280;57377;45.130;6.038;2022-09-13T05:48:13;92439.78;;;18.48
40968;BMP280;57377;45.130;6.038;2022-09-13T05:50:39;92439.63;;;18.57
40968;BMP280;57377;45.130;6.038;2022-09-13T05:53:04;92443.84;;;18.73
40968;BMP280;57377;45.130;6.038;2022-09-13T05:55:31;92447.06;;;18.66
40968;BMP280;57377;45.130;6.038;2022-09-13T05:57:57;92456.50;;;18.67
40968;BMP280;57377;45.130;6.038;2022-09-13T06:00:22;92452.41;;;18.70
40968;BMP280;57377;45.130;6.038;2022-09-13T06:02:48;92463.16;;;18.77
40968;BMP280;57377;45.130;6.038;2022-09-13T06:05:13;92470.38;;;18.80
40968;BMP280;57377;45.130;6.038;2022-09-13T06:07:40;92464.50;;;18.98
40968;BMP280;57377;45.130;6.038;2022-09-13T06:10:09;92461.91;;;18.86
40968;BMP280;57377;45.130;6.038;2022-09-13T06:12:35;92453.72;;;19.03
40968;BMP280;57377;45.130;6.038;2022-09-13T06:15:00;92445.41;;;19.16
40968;BMP280;57377;45.130;6.038;2022-09-13T06:17:26;92441.50;;;19.26
40968;BMP280;57377;45.130;6.038;2022-09-13T06:19:51;92435.84;;;18.69
40968;BMP280;57377;45.130;6.038;2022-09-13T06:22:16;92435.16;;;18.99
40968;BMP280;57377;45.130;6.038;2022-09-13T06:24:42;92445.47;;;19.04
40968;BMP280;57377;45.130;6.038;2022-09-13T06:27:07;92440.72;;;18.83
40968;BMP280;57377;45.130;6.038;2022-09-13T06:29:35;92437.16;;;18.91
40968;BMP280;57377;45.130;6.038;2022-09-13T06:32:01;92430.34;;;19.01
40968;BMP280;57377;45.130;6.038;2022-09-13T06:34:26;92432.91;;;19.28
40968;BMP280;57377;45.130;6.038;2022-09-13T06:36:52;92432.78;;;19.25
40968;BMP280;57377;45.130;6.038;2022-09-13T06:39:17;92427.78;;;19.35
40968;BMP280;57377;45.130;6.038;2022-09-13T06:41:43;92426.16;;;19.61
40968;BMP280;57377;45.130;6.038;2022-09-13T06:44:08;92422.06;;;19.79
40968;BMP280;57377;45.130;6.038;2022-09-13T06:46:34;92423.75;;;19.57
40968;BMP280;57377;45.130;6.038;2022-09-13T06:49:02;92411.78;;;19.59
40968;BMP280;57377;45.130;6.038;2022-09-13T06:51:28;92412.53;;;19.60
40968;BMP280;57377;45.130;6.038;2022-09-13T06:53:54;92411.66;;;19.86
40968;BMP280;57377;45.130;6.038;2022-09-13T06:56:29;92423.53;;;19.61
40968;BMP280;57377;45.130;6.038;2022-09-13T06:58:59;92422.56;;;19.69
40968;BMP280;57377;45.130;6.038;2022-09-13T07:01:28;92424.75;;;19.83
40968;BMP280;57377;45.130;6.038;2022-09-13T07:03:58;92416.84;;;20.17
40968;BMP280;57377;45.130;6.038;2022-09-13T07:06:26;92408.06;;;19.94
40968;BMP280;57377;45.130;6.038;2022-09-13T07:08:52;92408.63;;;20.03
40968;BMP280;57377;45.130;6.038;2022-09-13T07:11:21;92402.25;;;20.23
40968;BMP280;57377;45.130;6.038;2022-09-13T07:13:54;92398.75;;;20.19
40968;BMP280;57377;45.130;6.038;2022-09-13T07:16:31;92390.66;;;20.27
40968;BMP280;57377;45.130;6.038;2022-09-13T07:19:01;92395.00;;;20.01
40968;BMP280;57377;45.130;6.038;2022-09-13T07:21:30;92402.31;;;20.45
40968;BMP280;57377;45.130;6.038;2022-09-13T07:23:56;92399.22;;;20.58
40968;BMP280;57377;45.130;6.038;2022-09-13T07:26:22;92397.94;;;20.33
40968;BMP280;57377;45.130;6.038;2022-09-13T07:28:51;92395.72;;;20.54
40968;BMP280;57377;45.130;6.038;2022-09-13T07:31:22;92389.81;;;20.23
40968;BMP280;57377;45.130;6.038;2022-09-13T07:34:22;92395.97;;;19.93
40968;BMP280;57377;45.130;6.038;2022-09-13T07:36:47;92390.44;;;20.17
40968;BMP280;57377;45.130;6.038;2022-09-13T07:39:14;92396.84;;;20.34
40968;BMP280;57377;45.130;6.038;2022-09-13T07:41:40;92400.50;;;19.77
40968;BMP280;57377;45.130;6.038;2022-09-13T07:44:05;92376.56;;;20.04
40968;BMP280;57377;45.130;6.038;2022-09-13T07:46:33;92388.97;;;20.57
40968;BMP280;57377;45.130;6.038;2022-09-13T07:49:02;92389.81;;;21.01
40968;BMP280;57377;45.130;6.038;2022-09-13T07:51:30;92370.06;;;21.62
40968;BMP280;57377;45.130;6.038;2022-09-13T07:53:59;92369.78;;;22.21
40968;BMP280;57377;45.130;6.038;2022-09-13T07:56:27;92366.91;;;22.33
40968;BMP280;57377;45.130;6.038;2022-09-13T07:58:53;92365.41;;;22.68
40968;BMP280;57377;45.130;6.038;2022-09-13T08:01:48;92367.09;;;22.83
40968;BMP280;57377;45.130;6.038;2022-09-13T08:04:17;92366.44;;;22.57
40968;BMP280;57377;45.130;6.038;2022-09-13T08:06:43;92360.13;;;23.04
40968;BMP280;57377;45.130;6.038;2022-09-13T08:09:09;92362.50;;;23.16
40968;BMP280;57377;45.130;6.038;2022-09-13T08:11:45;92367.31;;;23.47
40968;BMP280;57377;45.130;6.038;2022-09-13T08:14:14;92361.66;;;24.05
40968;BMP280;57377;45.130;6.038;2022-09-13T08:16:39;92358.88;;;24.44
40968;BMP280;57377;45.130;6.038;2022-09-13T08:19:05;92364.16;;;24.37
40968;BMP280;57377;45.130;6.038;2022-09-13T08:21:38;92368.78;;;24.61
40968;BMP280;57377;45.130;6.038;2022-09-13T08:24:06;92367.38;;;24.80
40968;BMP280;57377;45.130;6.038;2022-09-13T08:26:34;92359.00;;;24.85
40968;BMP280;57377;45.130;6.038;2022-09-13T08:29:00;92362.03;;;24.84
40968;BMP280;57377;45.130;6.038;2022-09-13T08:31:27;92369.69;;;24.89
40968;BMP280;57377;45.130;6.038;2022-09-13T08:33:53;92373.31;;;24.50
40968;BMP280;57377;45.130;6.038;2022-09-13T08:36:19;92366.47;;;24.42
40968;BMP280;57377;45.130;6.038;2022-09-13T08:38:49;92366.44;;;24.35
40968;BMP280;57377;45.130;6.038;2022-09-13T08:46:52;92358.69;;;24.20
40968;BMP280;57377;45.130;6.038;2022-09-13T08:49:34;92369.16;;;23.39
40968;BMP280;57377;45.130;6.038;2022-09-13T08:52:31;92355.25;;;23.52
40968;BMP280;57377;45.130;6.038;2022-09-13T08:55:01;92347.22;;;23.99
40968;BMP280;57377;45.130;6.038;2022-09-13T08:57:43;92353.56;;;23.81
40968;BMP280;57377;45.130;6.038;2022-09-13T09:00:18;92344.03;;;24.43
40968;BMP280;57377;45.130;6.038;2022-09-13T09:05:28;92348.25;;;24.58
40968;BMP280;57377;45.130;6.038;2022-09-13T09:08:01;92346.13;;;24.98
40968;BMP280;57377;45.130;6.038;2022-09-13T09:10:41;92355.56;;;24.81
40968;BMP280;57377;45.130;6.038;2022-09-13T09:15:48;92355.59;;;24.85
40968;BMP280;57377;45.130;6.038;2022-09-13T09:18:38;92349.09;;;24.76
40968;BMP280;57377;45.130;6.038;2022-09-13T09:21:12;92348.38;;;24.85
40968;BMP280;57377;45.130;6.038;2022-09-13T09:23:53;92350.34;;;25.23
40968;BMP280;57377;45.130;6.038;2022-09-13T09:26:24;92348.44;;;25.13
40968;BMP280;57377;45.130;6.038;2022-09-13T09:28:58;92339.72;;;25.44
40968;BMP280;57377;45.130;6.038;2022-09-13T09:37:29;92339.34;;;25.42
40968;BMP280;57377;45.130;6.038;2022-09-13T09:39:59;92330.22;;;25.77
40968;BMP280;57377;45.130;6.038;2022-09-13T09:42:37;92327.91;;;25.89
40968;BMP280;57377;45.130;6.038;2022-09-13T09:45:11;92329.44;;;25.94
40968;BMP280;57377;45.130;6.038;2022-09-13T09:47:44;92332.34;;;24.68
40968;BMP280;57377;45.130;6.038;2022-09-13T09:50:17;92339.97;;;24.80
40968;BMP280;57377;45.130;6.038;2022-09-13T09:52:48;92330.09;;;24.74
40968;BMP280;57377;45.130;6.038;2022-09-13T09:57:55;92321.81;;;25.10
40968;BMP280;57377;45.130;6.038;2022-09-13T10:00:23;92325.50;;;24.64
40968;BMP280;57377;45.130;6.038;2022-09-13T10:02:53;92325.22;;;25.03
40968;BMP280;57377;45.130;6.038;2022-09-13T10:05:20;92320.69;;;25.24
40968;BMP280;57377;45.130;6.038;2022-09-13T10:07:55;92310.41;;;25.16
40968;BMP280;57377;45.130;6.038;2022-09-13T10:10:30;92311.94;;;25.31
40968;BMP280;57377;45.130;6.038;2022-09-13T10:13:01;92306.59;;;25.34
40968;BMP280;57377;45.130;6.038;2022-09-13T10:15:28;92316.88;;;25.22
40968;BMP280;57377;45.130;6.038;2022-09-13T10:20:31;92311.16;;;25.13
40968;BMP280;57377;45.130;6.038;2022-09-13T10:25:35;92314.22;;;25.32
40968;BMP280;57377;45.130;6.038;2022-09-13T10:28:03;92308.13;;;25.42
40968;BMP280;57377;45.130;6.038;2022-09-13T10:31:15;92310.03;;;25.45
40968;BMP280;57377;45.130;6.038;2022-09-13T10:33:28;92323.75;;;25.50
40968;BMP280;57377;45.130;6.038;2022-09-13T10:35:57;92323.34;;;25.17
40968;BMP280;57377;45.130;6.038;2022-09-13T10:38:33;92322.56;;;25.20
40968;BMP280;57377;45.130;6.038;2022-09-13T10:41:03;92324.50;;;25.34
40968;BMP280;57377;45.130;6.038;2022-09-13T10:43:31;92326.00;;;25.17
40968;BMP280;57377;45.130;6.038;2022-09-13T10:45:57;92325.66;;;25.26
40968;BMP280;57377;45.130;6.038;2022-09-13T10:48:24;92312.66;;;24.97
40968;BMP280;57377;45.130;6.038;2022-09-13T10:53:35;92322.97;;;25.02
40968;BMP280;57377;45.130;6.038;2022-09-13T10:56:01;92311.53;;;25.25
40968;BMP280;57377;45.130;6.038;2022-09-13T10:58:27;92300.91;;;25.29
40968;BMP280;57377;45.130;6.038;2022-09-13T11:12:21;92283.69;;;25.95
40968;BMP280;57377;45.130;6.038;2022-09-13T11:15:17;92302.84;;;25.52
40968;BMP280;57377;45.130;6.038;2022-09-13T11:31:46;92297.06;;;25.85
40968;BMP280;57377;45.130;6.038;2022-09-13T11:45:19;92307.75;;;25.68
40968;BMP280;57377;45.130;6.038;2022-09-13T11:47:57;92287.97;;;25.65
40968;BMP280;57377;45.130;6.038;2022-09-13T11:50:52;92280.72;;;25.79
40968;BMP280;57377;45.130;6.038;2022-09-13T11:53:40;92269.25;;;25.93
40968;BMP280;57377;45.130;6.038;2022-09-13T11:56:13;92266.50;;;26.13
40968;BMP280;57377;45.130;6.038;2022-09-13T12:01:48;92261.84;;;26.45
40968;BMP280;57377;45.130;6.038;2022-09-13T12:07:36;92249.59;;;26.58
40968;BMP280;57377;45.130;6.038;2022-09-13T12:10:14;92242.75;;;26.50
40968;BMP280;57377;45.130;6.038;2022-09-13T12:12:41;92246.13;;;26.61
40968;BMP280;57377;45.130;6.038;2022-09-13T12:15:16;92257.53;;;26.65
40968;BMP280;57377;45.130;6.038;2022-09-13T12:17:47;92248.75;;;26.68
40968;BMP280;57377;45.130;6.038;2022-09-13T12:20:36;92249.09;;;26.70
40968;BMP280;57377;45.130;6.038;2022-09-13T12:23:10;92243.00;;;26.79
40968;BMP280;57377;45.130;6.038;2022-09-13T12:25:51;92244.47;;;26.87
40968;BMP280;57377;45.130;6.038;2022-09-13T12:28:25;92251.28;;;26.95
40968;BMP280;57377;45.130;6.038;2022-09-13T12:31:29;92240.97;;;26.97
40968;BMP280;57377;45.130;6.038;2022-09-13T12:33:46;92234.97;;;26.83
40968;BMP280;57377;45.130;6.038;2022-09-13T12:47:16;92221.31;;;27.21
40968;BMP280;57377;45.130;6.038;2022-09-13T12:52:39;92220.53;;;27.24
40968;BMP280;57377;45.130;6.038;2022-09-13T13:01:21;92208.53;;;26.99
40968;BMP280;57377;45.130;6.038;2022-09-13T13:03:56;92203.75;;;27.23
40968;BMP280;57377;45.130;6.038;2022-09-13T13:06:35;92208.84;;;27.51
40968;BMP280;57377;45.130;6.038;2022-09-13T13:09:19;92188.06;;;27.69
40968;BMP280;57377;45.130;6.038;2022-09-13T13:11:47;92189.38;;;27.87
40968;BMP280;57377;45.130;6.038;2022-09-13T13:17:35;92181.84;;;27.75
40968;BMP280;57377;45.130;6.038;2022-09-13T13:23:19;92183.16;;;27.97
40968;BMP280;57377;45.130;6.038;2022-09-13T13:44:01;92176.97;;;28.03
40968;BMP280;57377;45.130;6.038;2022-09-13T13:46:35;92167.75;;;28.07
40968;BMP280;57377;45.130;6.038;2022-09-13T14:00:23;92160.41;;;28.15
40968;BMP280;57377;45.130;6.038;2022-09-13T14:05:24;92163.56;;;28.06
40968;BMP280;57377;45.130;6.038;2022-09-13T14:08:02;92152.84;;;28.06
40968;BMP280;57377;45.130;6.038;2022-09-13T14:10:35;92155.19;;;28.05
40968;BMP280;57377;45.130;6.038;2022-09-13T14:15:54;92145.78;;;27.90
40968;BMP280;57377;45.130;6.038;2022-09-13T14:21:17;92141.31;;;27.80
40968;BMP280;57377;45.130;6.038;2022-09-13T14:23:43;92146.31;;;27.78
40968;BMP280;57377;45.130;6.038;2022-09-13T14:26:09;92148.28;;;27.74
40968;BMP280;57377;45.130;6.038;2022-09-13T14:28:35;92149.38;;;27.43
40968;BMP280;57377;45.130;6.038;2022-09-13T14:31:01;92142.44;;;27.49
40968;BMP280;57377;45.130;6.038;2022-09-13T14:33:33;92150.97;;;27.38
40968;BMP280;57377;45.130;6.038;2022-09-13T14:36:31;92160.47;;;27.42
40968;BMP280;57377;45.130;6.038;2022-09-13T14:38:58;92153.69;;;27.27
40968;BMP280;57377;45.130;6.038;2022-09-13T14:41:32;92154.09;;;27.26
40968;BMP280;57377;45.130;6.038;2022-09-13T14:44:20;92140.38;;;27.24
40968;BMP280;57377;45.130;6.038;2022-09-13T14:46:50;92150.00;;;27.18
40968;BMP280;57377;45.130;6.038;2022-09-13T14:49:24;92153.88;;;27.10
40968;BMP280;57377;45.130;6.038;2022-09-13T14:51:56;92153.44;;;27.15
40968;BMP280;57377;45.130;6.038;2022-09-13T14:54:39;92156.16;;;27.08
40968;BMP280;57377;45.130;6.038;2022-09-13T14:57:17;92157.81;;;26.95
40968;BMP280;57377;45.130;6.038;2022-09-13T14:59:46;92156.41;;;26.80
40968;BMP280;57377;45.130;6.038;2022-09-13T15:02:17;92159.97;;;26.60
40968;BMP280;57377;45.130;6.038;2022-09-13T15:04:47;92164.94;;;26.55
40968;BMP280;57377;45.130;6.038;2022-09-13T15:07:26;92169.91;;;26.53
40968;BMP280;57377;45.130;6.038;2022-09-13T15:10:04;92169.16;;;26.52
40968;BMP280;57377;45.130;6.038;2022-09-13T15:12:30;92162.69;;;26.50
40968;BMP280;57377;45.130;6.038;2022-09-13T15:15:25;92172.25;;;26.51
40968;BMP280;57377;45.130;6.038;2022-09-13T15:17:59;92176.09;;;26.43
40968;BMP280;57377;45.130;6.038;2022-09-13T15:20:29;92173.53;;;26.29
40968;BMP280;57377;45.130;6.038;2022-09-13T15:22:56;92170.41;;;26.38
40968;BMP280;57377;45.130;6.038;2022-09-13T15:25:26;92169.25;;;26.42
40968;BMP280;57377;45.130;6.038;2022-09-13T15:27:54;92173.13;;;26.27
40968;BMP280;57377;45.130;6.038;2022-09-13T15:30:23;92168.91;;;26.33
40968;BMP280;57377;45.130;6.038;2022-09-13T15:35:41;92167.78;;;26.34
40968;BMP280;57377;45.130;6.038;2022-09-13T15:38:17;92163.94;;;26.35
40968;BMP280;57377;45.130;6.038;2022-09-13T15:40:45;92162.41;;;26.38
40968;BMP280;57377;45.130;6.038;2022-09-13T15:43:11;92163.16;;;26.38
40968;BMP280;57377;45.130;6.038;2022-09-13T15:45:36;92158.59;;;26.35
40968;BMP280;57377;45.130;6.038;2022-09-13T15:48:03;92162.44;;;26.34
40968;BMP280;57377;45.130;6.038;2022-09-13T15:50:30;92155.22;;;26.28
40968;BMP280;57377;45.130;6.038;2022-09-13T15:52:57;92166.28;;;26.26
40968;BMP280;57377;45.130;6.038;2022-09-13T15:55:24;92154.88;;;26.22
40968;BMP280;57377;45.130;6.038;2022-09-13T15:57:50;92167.84;;;26.13
40968;BMP280;57377;45.130;6.038;2022-09-13T16:00:18;92168.38;;;25.84
40968;BMP280;57377;45.130;6.038;2022-09-13T16:02:44;92161.09;;;25.92
40968;BMP280;57377;45.130;6.038;2022-09-13T16:05:10;92171.78;;;25.88
40968;BMP280;57377;45.130;6.038;2022-09-13T16:07:37;92174.09;;;25.76
40968;BMP280;57377;45.130;6.038;2022-09-13T16:10:03;92174.09;;;25.76
40968;BMP280;57377;45.130;6.038;2022-09-13T16:12:31;92173.38;;;25.69
40968;BMP280;57377;45.130;6.038;2022-09-13T16:14:56;92177.22;;;25.64
40968;BMP280;57377;45.130;6.038;2022-09-13T16:17:26;92176.06;;;25.58
40968;BMP280;57377;45.130;6.038;2022-09-13T16:19:53;92179.50;;;25.55
40968;BMP280;57377;45.130;6.038;2022-09-13T16:22:19;92179.50;;;25.55
40968;BMP280;57377;45.130;6.038;2022-09-13T16:24:45;92191.66;;;25.49
40968;BMP280;57377;45.130;6.038;2022-09-13T16:27:12;92186.75;;;25.34
40968;BMP280;57377;45.130;6.038;2022-09-13T16:29:37;92192.88;;;25.17
40968;BMP280;57377;45.130;6.038;2022-09-13T16:32:03;92188.28;;;25.25
40968;BMP280;57377;45.130;6.038;2022-09-13T16:34:29;92180.31;;;25.11
40968;BMP280;57377;45.130;6.038;2022-09-13T16:36:54;92179.59;;;24.86
40968;BMP280;57377;45.130;6.038;2022-09-13T16:39:20;92179.59;;;25.07
40968;BMP280;57377;45.130;6.038;2022-09-13T16:41:45;92178.06;;;25.10
40968;BMP280;57377;45.130;6.038;2022-09-13T16:44:11;92179.59;;;25.07
40968;BMP280;57377;45.130;6.038;2022-09-13T16:46:38;92184.13;;;24.89
40968;BMP280;57377;45.130;6.038;2022-09-13T16:49:03;92176.16;;;24.96
40968;BMP280;57377;45.130;6.038;2022-09-13T16:51:29;92166.66;;;24.95
40968;BMP280;57377;45.130;6.038;2022-09-13T16:53:54;92163.59;;;25.00
40968;BMP280;57377;45.130;6.038;2022-09-13T16:56:22;92144.59;;;25.02
40968;BMP280;57377;45.130;6.038;2022-09-13T16:58:49;92154.09;;;24.79
40968;BMP280;57377;45.130;6.038;2022-09-13T17:01:17;92148.38;;;24.70
40968;BMP280;57377;45.130;6.038;2022-09-13T17:03:43;92143.84;;;24.74
40968;BMP280;57377;45.130;6.038;2022-09-13T17:06:10;92133.56;;;24.76
40968;BMP280;57377;45.130;6.038;2022-09-13T17:08:38;92133.56;;;24.69
40968;BMP280;57377;45.130;6.038;2022-09-13T17:11:10;92130.53;;;24.74
40968;BMP280;57377;45.130;6.038;2022-09-13T17:13:37;92135.09;;;24.73
40968;BMP280;57377;45.130;6.038;2022-09-13T17:16:04;92136.97;;;24.62
40968;BMP280;57377;45.130;6.038;2022-09-13T17:18:31;92146.09;;;24.51